createdAt,value
2018-04-12T00:00:44.297Z,5.80
2018-04-12T00:03:11.740Z,6.70
2018-04-12T00:05:39.953Z,7.23
2018-04-12T00:08:07.388Z,5.77
2018-04-12T00:10:34.835Z,6.77
2018-04-12T00:13:03.113Z,6.23
2018-04-12T00:15:31.329Z,6.77
2018-04-12T00:17:58.770Z,7.00
2018-04-12T00:20:26.208Z,7.20
2018-04-12T00:22:53.648Z,7.90
2018-04-12T00:25:21.852Z,8.10
2018-04-12T00:27:49.303Z,8.47
2018-04-12T00:30:16.758Z,8.23
2018-04-12T00:32:44.191Z,8.40
2018-04-12T00:35:13.404Z,8.73
2018-04-12T00:37:41.612Z,8.60
2018-04-12T00:40:09.056Z,9.00
2018-04-12T00:42:36.506Z,8.90
2018-04-12T00:45:03.939Z,9.20
2018-04-12T00:47:32.150Z,9.47
2018-04-12T00:49:59.592Z,9.90
2018-04-12T00:52:27.045Z,8.43
2018-04-12T00:54:55.263Z,10.10
2018-04-12T00:57:22.701Z,9.37
2018-04-12T00:59:50.172Z,9.83
2018-04-12T01:02:17.604Z,9.43
2018-04-12T01:04:45.482Z,10.60
2018-04-12T01:07:12.924Z,10.13
2018-04-12T01:09:40.377Z,10.60
2018-04-12T01:12:08.584Z,10.50
2018-04-12T01:14:36.030Z,10.90
2018-04-12T01:17:03.488Z,11.37
2018-04-12T01:19:30.932Z,10.33
2018-04-12T01:21:58.396Z,10.40
2018-04-12T01:24:25.834Z,9.90
2018-04-12T01:26:53.374Z,13.00
2018-04-12T01:29:20.820Z,11.23
2018-04-12T01:31:48.280Z,11.93
2018-04-12T01:34:15.724Z,11.40
2018-04-12T01:36:43.162Z,11.90
2018-04-12T01:39:10.615Z,15.17
2018-04-12T01:41:38.061Z,12.77
2018-04-12T01:44:05.519Z,13.20
2018-04-12T01:46:32.976Z,15.30
2018-04-12T01:49:00.439Z,13.20
2018-04-12T01:51:27.885Z,13.10
2018-04-12T01:53:57.178Z,13.50
2018-04-12T01:56:24.633Z,15.33
2018-04-12T01:58:52.085Z,15.47
2018-04-12T02:01:19.538Z,16.27
2018-04-12T02:03:46.982Z,17.97
2018-04-12T02:06:15.183Z,16.03
2018-04-12T02:08:42.624Z,17.60
2018-04-12T02:11:10.064Z,17.43
2018-04-12T02:13:38.288Z,18.33
2018-04-12T02:16:05.727Z,18.97
2018-04-12T02:18:33.174Z,20.70
2018-04-12T02:21:00.626Z,20.70
2018-04-12T02:23:28.843Z,22.97
2018-04-12T02:25:56.287Z,23.20
2018-04-12T02:28:23.744Z,21.70
2018-04-12T02:30:51.194Z,22.77
2018-04-12T02:33:18.637Z,22.90
2018-04-12T02:35:46.083Z,25.60
2018-04-12T02:38:14.299Z,25.50
2018-04-12T02:40:41.732Z,27.30
2018-04-12T02:43:09.189Z,23.27
2018-04-12T02:45:36.638Z,28.87
2018-04-12T02:48:04.082Z,29.33
2018-04-12T02:50:32.288Z,28.50
2018-04-12T02:52:59.731Z,28.03
2018-04-12T02:55:27.174Z,28.30
2018-04-12T02:57:55.392Z,30.63
2018-04-12T03:00:22.827Z,30.27
2018-04-12T03:02:50.396Z,29.27
2018-04-12T03:05:17.837Z,30.30
2018-04-12T03:07:46.032Z,32.77
2018-04-12T03:10:13.497Z,28.77
2018-04-12T03:12:40.953Z,31.27
2018-04-12T03:15:08.391Z,29.07
2018-04-12T03:17:36.864Z,29.27
2018-04-12T03:20:05.348Z,31.50
2018-04-12T03:22:32.810Z,30.70
2018-04-12T03:25:00.255Z,30.80
2018-04-12T03:27:27.710Z,31.73
2018-04-12T03:29:55.159Z,31.87
2018-04-12T03:32:23.372Z,30.17
2018-04-12T03:34:50.826Z,33.47
2018-04-12T03:37:18.271Z,29.57
2018-04-12T03:39:45.710Z,31.80
2018-04-12T03:42:13.955Z,30.67
2018-04-12T03:44:41.393Z,31.87
2018-04-12T03:47:08.844Z,29.70
2018-04-12T03:49:36.350Z,32.37
2018-04-12T03:52:03.732Z,30.30
2018-04-12T03:54:31.248Z,30.70
2018-04-12T03:56:58.724Z,29.70
2018-04-12T03:59:26.920Z,31.10
2018-04-12T04:01:54.365Z,30.50
2018-04-12T04:04:22.590Z,31.30
2018-04-12T04:06:50.041Z,32.50
2018-04-12T04:09:17.488Z,31.43
2018-04-12T04:11:44.944Z,32.07
2018-04-12T04:14:24.224Z,31.57
2018-04-12T04:17:03.466Z,31.00
2018-04-12T04:19:43.387Z,30.93
2018-04-12T04:22:10.832Z,30.80
2018-04-12T04:24:38.287Z,28.67
2018-04-12T04:27:05.733Z,29.27
2018-04-12T04:29:33.187Z,27.93
2018-04-12T04:32:00.653Z,34.30
2018-04-12T04:34:28.101Z,30.77
2018-04-12T04:36:55.558Z,33.20
2018-04-12T04:39:23.015Z,33.67
2018-04-12T04:41:50.466Z,31.77
2018-04-12T04:44:17.908Z,35.63
2018-04-12T04:46:45.355Z,29.97
2018-04-12T04:49:13.573Z,31.23
2018-04-12T04:51:41.019Z,31.20
2018-04-12T04:54:09.474Z,31.63
2018-04-12T04:56:37.675Z,32.07
2018-04-12T04:59:05.120Z,31.97
2018-04-12T05:01:32.565Z,33.63
2018-04-12T05:04:00.025Z,31.53
2018-04-12T05:06:27.473Z,32.77
2018-04-12T05:08:55.679Z,32.60
2018-04-12T05:11:23.136Z,34.60
2018-04-12T05:13:50.588Z,32.17
2018-04-12T05:16:18.024Z,35.93
2018-04-12T05:18:46.290Z,32.17
2018-04-12T05:21:13.687Z,33.33
2018-04-12T05:23:41.252Z,34.10
2018-04-12T05:26:08.687Z,34.20
2018-04-12T05:28:36.140Z,32.63
2018-04-12T05:31:03.591Z,32.73
2018-04-12T05:33:31.040Z,34.80
2018-04-12T05:35:59.264Z,35.50
2018-04-12T05:38:26.703Z,35.60
2018-04-12T05:40:54.179Z,35.17
2018-04-12T05:43:21.585Z,34.20
2018-04-12T05:45:49.803Z,33.70
2018-04-12T05:48:17.250Z,35.03
2018-04-12T05:50:44.704Z,31.33
2018-04-12T05:53:12.148Z,33.40
2018-04-12T05:55:39.611Z,34.20
2018-04-12T05:58:07.053Z,32.47
2018-04-12T06:00:35.272Z,34.03
2018-04-12T06:03:02.717Z,33.53
2018-04-12T06:05:30.175Z,32.37
2018-04-12T06:07:57.634Z,31.80
2018-04-12T06:10:25.074Z,35.80
2018-04-12T06:12:52.518Z,33.80
2018-04-12T06:15:19.975Z,30.17
2018-04-12T06:17:48.184Z,32.90
2018-04-12T06:20:15.631Z,30.60
2018-04-12T06:22:43.079Z,31.67
2018-04-12T06:25:10.608Z,32.67
2018-04-12T06:27:38.817Z,32.07
2018-04-12T06:30:06.270Z,31.07
2018-04-12T06:32:33.727Z,32.80
2018-04-12T06:35:01.168Z,32.50
2018-04-12T06:37:28.625Z,32.00
2018-04-12T06:39:56.077Z,31.37
2018-04-12T06:42:24.296Z,30.27
2018-04-12T06:44:52.272Z,29.87
2018-04-12T06:47:19.992Z,32.20
2018-04-12T06:49:47.440Z,31.40
2018-04-12T06:52:15.658Z,30.17
2018-04-12T06:54:43.125Z,31.67
2018-04-12T06:57:10.590Z,31.17
2018-04-12T06:59:38.045Z,28.80
2018-04-12T07:02:05.510Z,28.10
2018-04-12T07:04:32.951Z,31.07
2018-04-12T07:07:00.396Z,26.87
2018-04-12T07:09:27.854Z,30.67
2018-04-12T07:11:55.312Z,27.43
2018-04-12T07:14:22.765Z,28.40
2018-04-12T07:16:50.202Z,29.47
2018-04-12T07:19:17.722Z,30.73
2018-04-12T07:21:45.122Z,27.70
2018-04-12T07:24:12.690Z,26.90
2018-04-12T07:26:40.158Z,25.37
2018-04-12T07:29:07.608Z,27.10
2018-04-12T07:31:35.070Z,25.37
2018-04-12T07:34:02.522Z,25.77
2018-04-12T07:36:29.976Z,26.80
2018-04-12T07:38:57.437Z,25.20
2018-04-12T07:41:24.895Z,23.47
2018-04-12T07:43:52.344Z,22.97
2018-04-12T07:46:19.790Z,23.33
2018-04-12T07:48:47.264Z,20.70
2018-04-12T07:51:14.727Z,25.30
2018-04-12T07:53:42.186Z,23.63
2018-04-12T07:56:09.642Z,22.47
2018-04-12T07:58:37.094Z,20.70
2018-04-12T08:01:04.565Z,19.60
2018-04-12T08:03:32.030Z,18.23
2018-04-12T08:05:59.479Z,19.27
2018-04-12T08:08:26.943Z,20.10
2018-04-12T08:10:54.393Z,20.70
2018-04-12T08:13:21.924Z,18.80
2018-04-12T08:15:49.377Z,19.40
2018-04-12T08:18:16.848Z,17.90
2018-04-12T08:20:44.303Z,16.90
2018-04-12T08:23:11.754Z,21.20
2018-04-12T08:25:39.205Z,18.57
2018-04-12T08:28:06.659Z,17.03
2018-04-12T08:30:34.101Z,15.33
2018-04-12T08:33:02.340Z,15.77
2018-04-12T08:35:29.791Z,13.20
2018-04-12T08:37:57.254Z,14.33
2018-04-12T08:40:24.716Z,14.37
2018-04-12T08:42:52.232Z,13.73
2018-04-12T08:45:19.666Z,13.20
2018-04-12T08:47:47.887Z,13.50
2018-04-12T08:50:15.336Z,11.70
2018-04-12T08:52:42.787Z,11.97
2018-04-12T08:55:10.237Z,11.27
2018-04-12T08:57:37.703Z,12.53
2018-04-12T09:00:05.145Z,11.40
2018-04-12T09:02:32.605Z,10.20
2018-04-12T09:05:00.049Z,10.40
2018-04-12T09:07:28.268Z,7.73
2018-04-12T09:09:55.733Z,7.17
2018-04-12T09:12:23.249Z,7.00
2018-04-12T09:14:50.700Z,6.70
2018-04-12T09:17:18.913Z,7.00
2018-04-12T09:19:46.403Z,6.77
2018-04-12T09:22:13.824Z,6.53
2018-04-12T09:24:41.350Z,6.17
2018-04-12T09:27:08.806Z,6.20
2018-04-12T09:29:36.269Z,4.97
2018-04-12T09:32:04.572Z,4.67
2018-04-12T09:34:32.018Z,4.60
2018-04-12T09:36:59.450Z,4.20
2018-04-12T09:39:27.737Z,4.50
2018-04-12T09:41:55.944Z,4.33
2018-04-12T09:44:23.386Z,3.80
2018-04-12T09:46:50.855Z,4.30
2018-04-12T09:49:18.289Z,4.40
2018-04-12T09:51:47.267Z,4.13
2018-04-12T09:54:14.730Z,3.87
2018-04-12T09:56:42.179Z,3.73
2018-04-12T09:59:10.492Z,3.50
2018-04-12T10:01:43.538Z,3.40
2018-04-12T10:04:17.026Z,3.70
2018-04-12T10:06:50.296Z,4.40
2018-04-12T10:09:17.804Z,4.63
2018-04-12T10:11:46.079Z,4.60
2018-04-12T10:14:14.307Z,4.30
2018-04-12T10:16:41.790Z,3.97
2018-04-12T10:19:09.200Z,4.50
2018-04-12T10:21:36.677Z,4.80
2018-04-12T10:24:05.110Z,4.37
2018-04-12T10:26:33.516Z,5.00
2018-04-12T10:29:00.991Z,4.80
2018-04-12T10:31:28.453Z,4.63
2018-04-12T10:33:55.919Z,4.67
2018-04-12T10:36:23.360Z,4.97
2018-04-12T10:38:51.580Z,6.20
2018-04-12T10:41:19.882Z,5.37
2018-04-12T10:43:47.392Z,5.70
2018-04-12T10:46:14.826Z,5.97
2018-04-12T10:48:42.280Z,5.30
2018-04-12T10:51:09.728Z,6.03
2018-04-12T10:53:37.244Z,6.97
2018-04-12T10:56:05.798Z,7.00
2018-04-12T10:58:33.252Z,8.50
2018-04-12T11:01:00.710Z,8.83
2018-04-12T11:03:28.224Z,8.37
2018-04-12T11:05:55.592Z,9.10
2018-04-12T11:08:23.050Z,8.93
2018-04-12T11:10:50.526Z,9.23
2018-04-12T11:13:17.993Z,9.30
2018-04-12T11:15:45.434Z,9.50
2018-04-12T11:18:12.988Z,9.97
2018-04-12T11:20:40.426Z,9.03
2018-04-12T11:23:07.899Z,9.07
2018-04-12T11:25:35.335Z,8.80
2018-04-12T11:28:03.540Z,9.37
2018-04-12T11:30:31.068Z,10.30
2018-04-12T11:32:58.533Z,10.87
2018-04-12T11:35:26.722Z,10.50
2018-04-12T11:37:54.175Z,11.33
2018-04-12T11:40:21.652Z,11.73
2018-04-12T11:42:49.091Z,12.10
2018-04-12T11:45:16.529Z,12.60
2018-04-12T11:47:44.746Z,10.70
2018-04-12T11:50:12.295Z,12.50
2018-04-12T11:52:39.744Z,11.93
2018-04-12T11:55:07.197Z,11.63
2018-04-12T11:57:34.630Z,12.13
2018-04-12T12:00:02.076Z,11.10
2018-04-12T12:02:30.296Z,10.70
2018-04-12T12:04:57.751Z,14.00
2018-04-12T12:07:25.271Z,13.77
2018-04-12T12:09:53.508Z,12.50
2018-04-12T12:12:20.976Z,12.70
2018-04-12T12:14:48.401Z,13.77
2018-04-12T12:17:15.872Z,13.97
2018-04-12T12:19:43.324Z,13.70
2018-04-12T12:22:10.761Z,13.33
2018-04-12T12:24:38.207Z,11.87
2018-04-12T12:27:05.712Z,12.77
2018-04-12T12:29:33.215Z,10.97
2018-04-12T12:32:00.666Z,13.90
2018-04-12T12:34:28.886Z,15.43
2018-04-12T12:36:56.329Z,10.27
2018-04-12T12:39:23.784Z,11.80
2018-04-12T12:41:51.231Z,10.83
2018-04-12T12:44:18.707Z,10.83
2018-04-12T12:46:46.157Z,11.70
2018-04-12T12:49:13.615Z,10.77
2018-04-12T12:51:41.063Z,10.63
2018-04-12T12:54:08.505Z,9.33
2018-04-12T12:56:35.949Z,11.63
2018-04-12T12:59:04.170Z,10.40
2018-04-12T13:01:31.607Z,10.50
2018-04-12T13:03:59.069Z,9.63
2018-04-12T13:06:26.510Z,9.70
2018-04-12T13:08:53.958Z,10.07
2018-04-12T13:11:22.165Z,9.00
2018-04-12T13:13:49.609Z,9.43
2018-04-12T13:16:17.097Z,8.43
2018-04-12T13:18:44.543Z,7.70
2018-04-12T13:21:12.032Z,7.23
2018-04-12T13:23:39.462Z,9.03
2018-04-12T13:26:06.908Z,8.07
2018-04-12T13:28:34.359Z,6.83
2018-04-12T13:31:01.803Z,7.57
2018-04-12T13:33:29.238Z,7.93
2018-04-12T13:35:57.439Z,8.60
2018-04-12T13:38:24.921Z,7.77
2018-04-12T13:40:52.359Z,7.60
2018-04-12T13:43:19.800Z,8.17
2018-04-12T13:45:47.243Z,7.57
2018-04-12T13:48:15.462Z,7.27
2018-04-12T13:50:42.917Z,6.10
2018-04-12T13:53:10.386Z,8.30
2018-04-12T13:55:37.841Z,8.00
2018-04-12T13:58:05.274Z,8.40
2018-04-12T14:00:32.713Z,8.13
2018-04-12T14:03:00.927Z,7.93
2018-04-12T14:05:28.378Z,9.27
2018-04-12T14:07:55.820Z,8.60
2018-04-12T14:10:23.262Z,7.03
2018-04-12T14:12:50.706Z,7.70
2018-04-12T14:15:18.932Z,9.00
2018-04-12T14:17:46.376Z,8.50
2018-04-12T14:20:13.822Z,10.07
2018-04-12T14:22:41.273Z,9.90
2018-04-12T14:25:08.727Z,10.60
2018-04-12T14:27:36.188Z,11.20
2018-04-12T14:30:03.649Z,10.53
2018-04-12T14:32:31.094Z,9.67
2018-04-12T14:34:59.306Z,8.00
2018-04-12T14:37:26.746Z,8.10
2018-04-12T14:39:54.211Z,9.67
2018-04-12T14:42:21.661Z,11.27
2018-04-12T14:44:49.125Z,10.90
2018-04-12T14:47:17.620Z,11.17
2018-04-12T14:49:45.038Z,10.63
2018-04-12T14:52:13.261Z,9.73
2018-04-12T14:54:40.720Z,11.70
2018-04-12T14:57:08.176Z,9.03
2018-04-12T14:59:35.627Z,11.57
2018-04-12T15:02:03.148Z,12.13
2018-04-12T15:04:31.354Z,9.73
2018-04-12T15:06:58.800Z,10.80
2018-04-12T15:09:26.271Z,10.97
2018-04-12T15:11:53.718Z,11.50
2018-04-12T15:14:21.171Z,10.63
2018-04-12T15:16:48.634Z,11.60
2018-04-12T15:19:16.081Z,11.13
2018-04-12T15:21:43.524Z,10.33
2018-04-12T15:24:10.990Z,10.23
2018-04-12T15:26:38.450Z,11.20
2018-04-12T15:29:05.920Z,10.30
2018-04-12T15:31:33.374Z,10.50
2018-04-12T15:34:00.903Z,9.87
2018-04-12T15:36:29.110Z,11.33
2018-04-12T15:38:56.564Z,8.63
2018-04-12T15:41:24.028Z,9.50
2018-04-12T15:43:51.463Z,9.90
2018-04-12T15:46:18.910Z,10.20
2018-04-12T15:48:46.363Z,9.07
2018-04-12T15:51:14.579Z,10.80
2018-04-12T15:53:42.093Z,11.30
2018-04-12T15:56:09.577Z,10.87
2018-04-12T15:58:37.024Z,9.43
2018-04-12T16:01:04.488Z,9.53
2018-04-12T16:03:31.939Z,11.93
2018-04-12T16:05:59.386Z,12.00
2018-04-12T16:08:26.834Z,11.83
2018-04-12T16:10:55.268Z,11.17
2018-04-12T16:13:22.717Z,11.87
2018-04-12T16:15:50.174Z,12.00
2018-04-12T16:18:17.625Z,9.70
2018-04-12T16:20:45.084Z,10.00
2018-04-12T16:23:12.544Z,11.80
2018-04-12T16:25:40.001Z,7.90
2018-04-12T16:28:07.434Z,8.37
2018-04-12T16:30:34.883Z,10.80
2018-04-12T16:33:03.603Z,9.30
2018-04-12T16:35:31.887Z,8.90
2018-04-12T16:37:59.339Z,8.20
2018-04-12T16:40:26.778Z,9.93
2018-04-12T16:42:54.227Z,9.07
2018-04-12T16:45:21.671Z,10.63
2018-04-12T16:47:49.880Z,8.53
2018-04-12T16:50:17.319Z,7.80
2018-04-12T16:52:44.783Z,8.03
2018-04-12T16:55:12.239Z,9.27
2018-04-12T16:57:39.680Z,9.00
2018-04-12T17:00:07.119Z,10.27
2018-04-12T17:02:35.372Z,10.10
2018-04-12T17:05:02.832Z,8.37
2018-04-12T17:07:30.282Z,9.27
2018-04-12T17:09:57.728Z,9.07
2018-04-12T17:12:25.166Z,8.03
2018-04-12T17:14:52.608Z,8.37
2018-04-12T17:17:20.049Z,8.33
2018-04-12T17:19:48.264Z,8.57
2018-04-12T17:22:15.693Z,7.87
2018-04-12T17:24:43.240Z,8.57
2018-04-12T17:27:10.696Z,9.20
2018-04-12T17:29:38.904Z,9.50
2018-04-12T17:32:06.363Z,10.20
2018-04-12T17:34:33.817Z,10.40
2018-04-12T17:37:01.244Z,9.83
2018-04-12T17:39:29.468Z,10.23
2018-04-12T17:41:56.930Z,11.00
2018-04-12T17:44:24.385Z,8.20
2018-04-12T17:46:51.821Z,10.07
2018-04-12T17:49:19.277Z,9.33
2018-04-12T17:51:46.714Z,9.07
2018-04-12T17:54:14.203Z,10.20
2018-04-12T17:56:42.761Z,9.93
2018-04-12T17:59:10.212Z,9.23
2018-04-12T18:01:37.655Z,9.60
2018-04-12T18:04:05.883Z,9.70
2018-04-12T18:06:33.334Z,9.60
2018-04-12T18:09:00.869Z,9.90
2018-04-12T18:11:28.347Z,10.50
2018-04-12T18:13:55.893Z,9.23
2018-04-12T18:16:23.360Z,8.23
2018-04-12T18:18:50.807Z,10.80
2018-04-12T18:21:18.265Z,10.87
2018-04-12T18:23:45.843Z,11.70
2018-04-12T18:26:13.309Z,10.93
2018-04-12T18:28:40.750Z,9.90
2018-04-12T18:31:09.205Z,8.73
2018-04-12T18:33:36.660Z,8.20
2018-04-12T18:36:04.969Z,8.03
2018-04-12T18:38:32.499Z,8.80
2018-04-12T18:41:00.738Z,9.60
2018-04-12T18:43:28.197Z,9.77
2018-04-12T18:45:55.649Z,10.10
2018-04-12T18:48:23.147Z,8.90
2018-04-12T18:50:50.608Z,12.00
2018-04-12T18:53:18.057Z,11.03
2018-04-12T18:55:46.317Z,8.30
2018-04-12T18:58:13.797Z,10.07
2018-04-12T19:00:42.094Z,11.33
2018-04-12T19:03:09.736Z,11.53
2018-04-12T19:05:37.188Z,9.97
2018-04-12T19:08:05.410Z,10.63
2018-04-12T19:10:32.952Z,10.90
2018-04-12T19:13:01.413Z,10.37
2018-04-12T19:15:29.896Z,10.47
2018-04-12T19:17:57.352Z,11.30
2018-04-12T19:20:24.836Z,14.60
2018-04-12T19:22:52.355Z,13.90
2018-04-12T19:25:20.725Z,13.10
2018-04-12T19:27:48.945Z,13.03
2018-04-12T19:30:17.403Z,12.20
2018-04-12T19:32:44.894Z,11.90
2018-04-12T19:35:13.079Z,12.27
2018-04-12T19:37:40.538Z,11.33
2018-04-12T19:40:07.993Z,11.53
2018-04-12T19:42:35.504Z,10.17
2018-04-12T19:45:02.963Z,11.17
2018-04-12T19:47:30.418Z,8.83
2018-04-12T19:49:58.181Z,8.27
2018-04-12T19:52:26.724Z,9.10
2018-04-12T19:54:54.983Z,9.53
2018-04-12T19:57:22.585Z,9.73
2018-04-12T19:59:51.117Z,9.10
2018-04-12T20:02:18.648Z,8.10
2018-04-12T20:04:46.907Z,8.53
2018-04-12T20:07:15.229Z,9.00
2018-04-12T20:09:42.948Z,7.90
2018-04-12T20:12:10.420Z,8.40
2018-04-12T20:14:37.955Z,9.03
2018-04-12T20:17:05.463Z,8.77
2018-04-12T20:19:33.909Z,9.20
2018-04-12T20:22:01.400Z,8.07
2018-04-12T20:24:28.849Z,8.47
2018-04-12T20:26:56.332Z,7.67
2018-04-12T20:29:23.781Z,8.60
2018-04-12T20:31:51.325Z,7.80
2018-04-12T20:34:18.777Z,7.97
2018-04-12T20:36:46.226Z,7.87
2018-04-12T20:39:13.673Z,8.20
2018-04-12T20:41:41.967Z,8.90
2018-04-12T20:44:09.492Z,10.07
2018-04-12T20:46:38.732Z,9.87
2018-04-12T20:49:06.277Z,7.90
2018-04-12T20:51:33.711Z,6.70
2018-04-12T20:54:01.960Z,8.87
2018-04-12T20:56:29.468Z,8.40
2018-04-12T20:58:56.902Z,8.57
2018-04-12T21:01:25.195Z,7.00
2018-04-12T21:03:52.667Z,8.53
2018-04-12T21:06:20.244Z,8.43
2018-04-12T21:08:47.787Z,8.80
2018-04-12T21:11:15.357Z,8.00
2018-04-12T21:13:43.790Z,8.13
2018-04-12T21:16:13.077Z,8.57
2018-04-12T21:18:40.512Z,7.80
2018-04-12T21:21:07.944Z,7.80
2018-04-12T21:23:35.388Z,9.20
2018-04-12T21:26:02.822Z,8.30
2018-04-12T21:28:31.045Z,8.27
2018-04-12T21:30:58.493Z,9.00
2018-04-12T21:33:25.926Z,9.13
2018-04-12T21:35:53.367Z,9.93
2018-04-12T21:38:21.568Z,9.77
2018-04-12T21:40:49.023Z,9.20
2018-04-12T21:43:16.471Z,8.90
2018-04-12T21:45:44.684Z,8.90
2018-04-12T21:48:12.143Z,9.27
2018-04-12T21:50:39.588Z,10.80
2018-04-12T21:53:07.051Z,10.00
2018-04-12T21:55:34.483Z,9.23
2018-04-12T21:58:01.932Z,9.00
2018-04-12T22:00:29.387Z,10.23
2018-04-12T22:02:57.722Z,10.03
2018-04-12T22:05:25.116Z,9.77
2018-04-12T22:07:53.330Z,9.47
2018-04-12T22:10:20.759Z,9.63
2018-04-12T22:12:48.204Z,9.90
2018-04-12T22:15:16.412Z,9.33
2018-04-12T22:17:43.870Z,9.23
2018-04-12T22:20:11.294Z,9.80
2018-04-12T22:22:39.513Z,10.20
2018-04-12T22:25:06.959Z,11.70
2018-04-12T22:27:34.401Z,11.73
2018-04-12T22:30:01.857Z,11.37
2018-04-12T22:32:29.303Z,11.13
2018-04-12T22:34:57.511Z,9.80
2018-04-12T22:37:24.960Z,11.20
2018-04-12T22:39:52.426Z,10.27
2018-04-12T22:42:19.854Z,9.87
2018-04-12T22:44:47.316Z,11.37
2018-04-12T22:47:14.750Z,11.63
2018-04-12T22:49:42.969Z,11.00
2018-04-12T22:52:10.416Z,11.33
2018-04-12T22:54:37.883Z,11.47
2018-04-12T22:57:05.321Z,12.10
2018-04-12T22:59:32.781Z,11.57
2018-04-12T23:02:00.224Z,11.80
2018-04-12T23:04:27.671Z,11.63
2018-04-12T23:06:55.901Z,11.13
2018-04-12T23:09:23.354Z,8.83
2018-04-12T23:11:50.875Z,9.53
2018-04-12T23:14:19.160Z,11.03
2018-04-12T23:16:46.591Z,11.63
2018-04-12T23:19:14.822Z,10.03
2018-04-12T23:21:42.490Z,11.10
2018-04-12T23:24:09.937Z,9.70
2018-04-12T23:26:37.384Z,9.47
2018-04-12T23:29:04.822Z,10.10
2018-04-12T23:31:32.271Z,9.97
2018-04-12T23:33:59.714Z,10.20
2018-04-12T23:36:27.935Z,11.33
2018-04-12T23:38:55.375Z,10.13
2018-04-12T23:41:22.823Z,10.10
2018-04-12T23:43:50.280Z,10.47
2018-04-12T23:46:17.714Z,11.27
2018-04-12T23:48:45.926Z,10.73
2018-04-12T23:51:13.380Z,10.63
2018-04-12T23:53:41.861Z,10.17
2018-04-12T23:56:09.296Z,10.13
2018-04-12T23:58:37.524Z,11.13
